Main page
METAR-TAF:

METAR-TAF

Airports :

Scatsta, Shetland, Scotland

Scatsta Airport

latitude: 60-26N, longitude: 001-18W, elevation: 22 m

Current weather observation

The report was made 29 minutes ago, at 06:50 UTC
Wind 1 kt from variable directions
Temperature 12°C
Humidity 100%
Pressure 995 hPa
Visibility 10 km or more

METAR: EGPM 190650Z AUTO VRB01KT 9999 SCT003/// BKN011/// OVC037/// 12/12 Q0995

Time: 08:19 (07:19 UTC)

Forecast

The report was made 1 hour and 5 minutes ago, at 06:14 UTC
Forecast valid from 19 at 06 UTC to 19 at 15 UTC
Wind 6 kt from the North
Visibility 10 km or more
Few clouds at a height of 1200 ft
Scattered clouds at a height of 4000 ft
Temporary
from 19 at 06 UTC to 19 at 09 UTC
Broken clouds at a height of 400 ft
Probability 30% :
Temporary
from 19 at 09 UTC to 19 at 15 UTC
Visibility: 7000 m
Broken clouds at a height of 1000 ft
rain showers

TAF: EGPM 190614Z 1906/1915 35006KT 9999 FEW012 SCT040 TEMPO 1906/1909 BKN004 PROB30 TEMPO 1909/1915 7000 SHRA BKN010

Weather observations and forecasts of more than 4000 airports (METAR and TAF reports).

The available stations are represented by yellow and red dots on the map.

Hover mouse over dot to see the name of the station.

Then click to see weather observations and forecasts.

To change the map : click on the green buttons with a black cross to zoom in, on the green button with a dash to zoom out, or on the green arrows for adjacent maps.


METAR-TAF: